Time;durP1;ratioP1;P1;durP2;ratioP2;P2;SDS_P1;SDS_P2;PMS_P1;PMS_P2;Temp;Humidity;BMP_temperature;BMP_pressure;BME280_temperature;BME280_humidity;BME280_pressure;Samples;Min_cycle;Max_cycle;Signal;HPM_P1;HPM_P2
2022/09/30 00:00:33;;;;;;;4.47;0.50;;;;;;;11.24;86.67;94968.45;1788870;80;20942;-66
2022/09/30 00:03:02;;;;;;;0.47;0.10;;;;;;;11.18;86.15;94968.63;1788504;80;21017;-66
2022/09/30 00:05:29;;;;;;;1.40;0.53;;;;;;;11.12;85.92;94983.34;1788970;80;20982;-66
2022/09/30 00:07:55;;;;;;;1.50;0.20;;;;;;;11.04;86.37;94964.24;1788274;80;21078;-66
2022/09/30 00:10:22;;;;;;;0.45;0.10;;;;;;;11.03;86.34;94970.41;1788865;80;20974;-66
2022/09/30 00:12:51;;;;;;;0.60;0.15;;;;;;;10.88;86.71;94965.60;1788858;80;21005;-66
2022/09/30 00:15:19;;;;;;;2.25;0.23;;;;;;;10.83;86.30;94972.33;1788621;80;21037;-66
2022/09/30 00:17:46;;;;;;;2.15;0.60;;;;;;;10.72;87.03;94967.84;1788536;80;20974;-66
2022/09/30 00:20:13;;;;;;;4.00;0.47;;;;;;;10.75;87.26;94965.95;1788770;80;21495;-66
2022/09/30 00:22:41;;;;;;;0.95;0.10;;;;;;;10.74;87.16;94973.48;1788360;80;21551;-66
2022/09/30 00:25:08;;;;;;;2.85;0.40;;;;;;;10.72;86.96;94970.02;1788714;80;20990;-66
2022/09/30 00:27:34;;;;;;;0.10;0.10;;;;;;;10.67;86.59;94965.33;1788865;80;21468;-66
2022/09/30 00:30:01;;;;;;;3.52;0.40;;;;;;;10.68;87.40;94967.05;1788695;80;21014;-66
2022/09/30 00:32:28;;;;;;;2.17;0.30;;;;;;;10.65;87.16;94972.41;1788788;80;21064;-66
2022/09/30 00:34:54;;;;;;;2.92;0.30;;;;;;;10.58;87.27;94968.22;1788779;80;20997;-65
2022/09/30 00:37:21;;;;;;;1.37;0.20;;;;;;;10.51;86.93;94968.87;1788738;80;21058;-66
2022/09/30 00:39:47;;;;;;;0.33;0.20;;;;;;;10.53;87.45;94971.02;1788719;80;20982;-66
2022/09/30 00:42:18;;;;;;;5.37;0.30;;;;;;;10.46;86.67;94962.86;1788926;80;20926;-66
2022/09/30 00:45:04;;;;;;;1.90;0.50;;;;;;;10.40;87.46;94965.19;1788770;80;20994;-66
2022/09/30 00:47:56;;;;;;;4.55;0.30;;;;;;;10.37;87.13;94965.74;1788970;80;21456;-66
2022/09/30 00:50:48;;;;;;;3.08;0.55;;;;;;;10.32;87.24;94963.69;1788378;80;21010;-66
2022/09/30 00:53:23;;;;;;;4.35;0.40;;;;;;;10.32;87.81;94957.09;1788386;80;21061;-66
2022/09/30 00:56:01;;;;;;;1.05;0.30;;;;;;;10.26;87.28;94963.37;1788953;80;21021;-66
2022/09/30 00:58:45;;;;;;;3.25;0.90;;;;;;;10.22;87.64;94956.45;1783368;80;21029;-66
2022/09/30 01:01:13;;;;;;;0.98;0.70;;;;;;;10.16;87.11;94952.67;1789145;80;20990;-66
2022/09/30 01:04:02;;;;;;;2.20;0.45;;;;;;;10.15;87.83;94953.14;1788830;80;20986;-66
2022/09/30 01:06:29;;;;;;;2.30;0.82;;;;;;;10.14;87.56;94960.61;1788464;80;21021;-66
2022/09/30 01:08:59;;;;;;;3.30;0.70;;;;;;;10.09;87.95;94954.59;1788476;80;21001;-66
2022/09/30 01:11:28;;;;;;;2.05;0.90;;;;;;;10.05;87.65;94959.53;1788698;80;20982;-66
2022/09/30 01:14:03;;;;;;;5.10;0.90;;;;;;;10.04;88.04;94957.81;1788785;80;20954;-66
2022/09/30 01:17:05;;;;;;;4.95;0.95;;;;;;;10.06;87.93;94967.01;1788753;80;21013;-66
2022/09/30 01:19:50;;;;;;;1.55;0.40;;;;;;;10.01;88.09;94955.27;1780692;80;21084;-66
2022/09/30 01:22:47;;;;;;;1.47;0.30;;;;;;;9.96;87.81;94958.02;1788705;80;21002;-66
2022/09/30 01:25:40;;;;;;;3.70;0.78;;;;;;;9.93;87.53;94962.06;1788225;80;21006;-66
2022/09/30 01:28:39;;;;;;;1.52;0.40;;;;;;;9.93;88.22;94958.56;1789272;80;21060;-66
2022/09/30 01:32:01;;;;;;;3.05;0.37;;;;;;;9.88;88.22;94969.22;1788297;80;21029;-66
2022/09/30 01:34:51;;;;;;;0.62;0.37;;;;;;;9.84;88.10;94964.92;1789040;80;21029;-66
2022/09/30 01:37:31;;;;;;;0.78;0.40;;;;;;;9.83;87.71;94968.94;1788729;80;21017;-66
2022/09/30 01:40:10;;;;;;;0.60;0.50;;;;;;;9.86;88.43;94968.39;1777220;80;21077;-66
2022/09/30 01:42:48;;;;;;;0.57;0.40;;;;;;;9.78;87.90;94970.78;1748737;82;21018;-66
2022/09/30 01:45:20;;;;;;;3.95;0.50;;;;;;;9.74;87.56;94973.51;1731466;82;21023;-66
2022/09/30 01:48:26;;;;;;;8.00;0.60;;;;;;;9.70;87.42;94976.25;1728759;82;21007;-66
2022/09/30 01:51:04;;;;;;;3.17;0.55;;;;;;;9.69;88.23;94975.85;1732003;83;21023;-66
2022/09/30 01:53:57;;;;;;;3.40;0.60;;;;;;;9.64;87.92;94968.52;1731889;83;21035;-66
2022/09/30 01:56:41;;;;;;;16.17;6.53;;;;;;;9.56;87.66;94975.30;1732263;82;21055;-66
2022/09/30 01:59:21;;;;;;;4.85;1.40;;;;;;;9.54;87.97;94974.46;1732129;82;21517;-66
2022/09/30 02:02:08;;;;;;;3.22;1.00;;;;;;;9.54;88.04;94970.51;1732436;82;21050;-66
2022/09/30 02:04:40;;;;;;;5.37;2.60;;;;;;;9.59;88.34;94976.53;1732424;82;20987;-66
2022/09/30 02:07:13;;;;;;;3.75;1.22;;;;;;;9.66;88.59;94983.84;1732301;82;21027;-66
2022/09/30 02:09:45;;;;;;;4.05;0.28;;;;;;;9.67;87.98;94988.19;1748619;82;21034;-66
2022/09/30 02:12:18;;;;;;;8.07;0.80;;;;;;;9.71;88.15;94974.05;1744842;82;21038;-66
2022/09/30 02:15:07;;;;;;;0.68;0.30;;;;;;;9.67;88.01;94973.24;1748905;82;21902;-66
2022/09/30 02:17:43;;;;;;;4.40;1.57;;;;;;;9.65;87.60;94971.13;1788814;80;20997;-66
2022/09/30 02:20:15;;;;;;;3.83;1.10;;;;;;;9.60;87.99;94980.91;1788691;80;21033;-66
2022/09/30 02:22:49;;;;;;;6.03;1.20;;;;;;;9.58;87.67;94974.81;1786643;80;21021;-66
2022/09/30 02:25:24;;;;;;;8.53;1.80;;;;;;;9.56;87.79;94974.44;1749415;80;20978;-66
2022/09/30 02:27:56;;;;;;;6.67;1.77;;;;;;;9.52;87.96;94969.67;1788024;80;21049;-66
2022/09/30 02:30:23;;;;;;;4.58;1.62;;;;;;;9.54;87.98;94968.73;1788829;80;21507;-66
2022/09/30 02:33:00;;;;;;;1.87;1.20;;;;;;;9.51;87.39;94970.13;1788956;80;20956;-66
2022/09/30 02:35:47;;;;;;;3.40;1.10;;;;;;;9.54;87.66;94970.51;1788683;80;21484;-66
2022/09/30 02:38:19;;;;;;;4.47;1.00;;;;;;;9.59;87.78;94968.63;1787217;80;21014;-66
2022/09/30 02:40:51;;;;;;;1.90;0.50;;;;;;;9.66;87.93;94970.67;1788874;80;21053;-66
2022/09/30 02:43:20;;;;;;;1.77;0.37;;;;;;;9.67;87.58;94972.38;1788658;80;21017;-66
2022/09/30 02:46:13;;;;;;;1.40;0.40;;;;;;;9.70;87.65;94977.56;1789047;80;21499;-66
2022/09/30 02:49:12;;;;;;;2.25;0.70;;;;;;;9.70;87.65;94975.83;1786264;80;21017;-66
2022/09/30 02:52:06;;;;;;;3.08;1.20;;;;;;;9.68;88.09;94979.41;1788038;80;21069;-66
2022/09/30 02:55:06;;;;;;;4.22;1.70;;;;;;;9.53;87.20;94984.59;1788350;80;21053;-66
2022/09/30 02:58:05;;;;;;;2.58;1.45;;;;;;;9.45;87.58;94994.00;1788873;80;20985;-66
2022/09/30 03:00:32;;;;;;;0.40;0.40;;;;;;;9.57;88.45;94989.32;1788576;80;20975;-66
2022/09/30 03:03:04;;;;;;;4.20;0.65;;;;;;;9.62;88.18;94990.08;1788612;80;21456;-66
2022/09/30 03:05:30;;;;;;;3.35;0.85;;;;;;;9.61;87.78;95002.38;1788676;80;21022;-66
2022/09/30 03:07:57;;;;;;;1.65;0.70;;;;;;;9.62;87.96;94988.30;1788910;80;20954;-66
2022/09/30 03:10:24;;;;;;;2.25;0.45;;;;;;;9.62;88.04;94987.44;1788918;80;21051;-66
2022/09/30 03:13:14;;;;;;;1.00;0.40;;;;;;;9.62;88.21;94989.61;1788783;80;21496;-66
2022/09/30 03:16:03;;;;;;;2.02;0.30;;;;;;;9.69;88.32;94994.30;1788541;80;21041;-66
2022/09/30 03:19:13;;;;;;;3.75;0.80;;;;;;;9.75;88.88;95006.88;1775344;80;20997;-66
2022/09/30 03:21:54;;;;;;;4.53;1.02;;;;;;;9.74;87.94;95013.02;1789009;80;20967;-66
2022/09/30 03:25:09;;;;;;;1.98;0.88;;;;;;;9.71;87.30;95013.56;1788413;80;21010;-66
2022/09/30 03:27:55;;;;;;;1.27;0.88;;;;;;;9.76;88.10;95007.73;1788547;80;21013;-66
2022/09/30 03:30:29;;;;;;;2.40;0.68;;;;;;;9.73;87.46;95003.86;1779957;80;21527;-66
2022/09/30 03:33:11;;;;;;;5.53;0.70;;;;;;;9.67;87.72;95005.31;1787421;80;20999;-66
2022/09/30 03:35:55;;;;;;;1.45;0.45;;;;;;;9.64;87.92;94999.67;1773971;80;20985;-66
2022/09/30 03:39:05;;;;;;;2.80;0.60;;;;;;;9.72;88.08;95002.11;1788428;80;21515;-66
2022/09/30 03:41:49;;;;;;;3.40;0.60;;;;;;;9.75;87.81;95001.60;1788527;80;21006;-66
2022/09/30 03:44:35;;;;;;;1.40;0.60;;;;;;;9.80;87.55;95004.09;1788652;80;20982;-66
2022/09/30 03:47:12;;;;;;;3.33;0.60;;;;;;;9.75;87.47;94995.02;1785450;80;21129;-66
2022/09/30 03:49:49;;;;;;;3.22;0.55;;;;;;;9.68;87.30;94993.89;1788903;80;21057;-66
2022/09/30 03:52:17;;;;;;;4.08;0.70;;;;;;;9.68;87.57;95002.66;1788871;80;21006;-66
2022/09/30 03:54:54;;;;;;;4.03;0.70;;;;;;;9.71;87.49;95011.79;1788785;80;20970;-66
2022/09/30 03:57:20;;;;;;;2.08;0.55;;;;;;;9.66;87.61;95014.13;1788502;80;21002;-66
2022/09/30 03:59:47;;;;;;;5.35;0.60;;;;;;;9.67;88.06;95006.63;1788902;80;20950;-66
2022/09/30 04:02:13;;;;;;;0.30;0.30;;;;;;;9.59;87.27;95003.33;1788964;80;21018;-66
2022/09/30 04:04:41;;;;;;;3.52;0.70;;;;;;;9.56;87.82;95004.72;1788911;80;21483;-66
2022/09/30 04:07:09;;;;;;;0.55;0.45;;;;;;;9.51;87.55;95010.95;1788153;80;21109;-66
2022/09/30 04:09:38;;;;;;;4.22;0.80;;;;;;;9.57;88.48;95009.07;1788653;80;21005;-66
2022/09/30 04:12:06;;;;;;;1.77;0.50;;;;;;;9.61;87.87;95011.60;1788538;80;21018;-66
2022/09/30 04:14:34;;;;;;;2.02;0.50;;;;;;;9.59;88.22;95006.81;1788657;80;21001;-66
2022/09/30 04:17:03;;;;;;;2.37;0.68;;;;;;;9.67;88.54;95007.48;1789011;80;20954;-66
2022/09/30 04:19:30;;;;;;;0.88;0.70;;;;;;;9.73;88.16;95000.77;1788777;80;21479;-65
2022/09/30 04:21:57;;;;;;;2.30;0.80;;;;;;;9.77;88.40;94999.37;1788965;80;21045;-66
2022/09/30 04:24:24;;;;;;;3.75;1.65;;;;;;;9.81;87.93;95004.98;1788351;80;21009;-66
2022/09/30 04:26:51;;;;;;;4.40;0.60;;;;;;;9.83;87.81;95014.58;1788986;80;20942;-66
2022/09/30 04:29:18;;;;;;;0.88;0.57;;;;;;;9.89;87.98;95021.00;1788534;80;21077;-66
2022/09/30 04:31:44;;;;;;;2.40;1.02;;;;;;;9.89;87.86;95032.86;1789162;80;21041;-66
2022/09/30 04:34:11;;;;;;;1.37;1.25;;;;;;;9.86;87.60;95028.13;1788729;80;21532;-66
2022/09/30 04:36:38;;;;;;;3.67;2.40;;;;;;;9.89;88.16;95019.69;1788896;80;21009;-66
2022/09/30 04:39:05;;;;;;;8.13;3.67;;;;;;;9.98;88.74;95015.97;1783433;80;21010;-66
2022/09/30 04:41:33;;;;;;;5.42;3.62;;;;;;;10.07;88.27;95017.48;1781194;80;20998;-66
2022/09/30 04:44:04;;;;;;;5.25;3.37;;;;;;;10.10;88.09;95019.58;1781513;80;20986;-66
2022/09/30 04:46:28;;;;;;;6.10;4.22;;;;;;;10.17;88.00;95035.66;1780699;80;21002;-66
2022/09/30 04:48:55;;;;;;;9.08;3.35;;;;;;;10.26;88.35;95033.25;1781182;80;21500;-66
2022/09/30 04:51:22;;;;;;;6.50;3.40;;;;;;;10.37;88.17;95032.98;1781225;80;21006;-66
2022/09/30 04:53:49;;;;;;;4.70;2.98;;;;;;;10.35;87.13;95039.61;1781355;80;20971;-65
2022/09/30 04:56:16;;;;;;;8.10;4.22;;;;;;;10.35;87.21;95053.25;1780752;80;22110;-66
2022/09/30 04:58:44;;;;;;;12.47;6.62;;;;;;;10.31;86.98;95060.39;1780957;80;21001;-66
2022/09/30 05:01:14;;;;;;;13.50;5.92;;;;;;;10.29;87.23;95078.48;1780938;80;21057;-68
2022/09/30 05:03:42;;;;;;;13.60;5.28;;;;;;;10.37;88.10;95073.41;1780732;80;21046;-70
2022/09/30 05:06:09;;;;;;;8.90;4.37;;;;;;;10.46;88.27;95075.38;1781559;80;21026;-70
2022/09/30 05:08:36;;;;;;;11.65;3.90;;;;;;;10.54;88.44;95076.92;1781441;80;21468;-65
2022/09/30 05:11:09;;;;;;;9.28;7.90;;;;;;;10.65;88.42;95085.00;1781336;80;21009;-68
2022/09/30 05:13:39;;;;;;;6.70;4.30;;;;;;;10.65;87.37;95086.33;1781651;80;21453;-71
2022/09/30 05:16:08;;;;;;;7.87;4.60;;;;;;;10.68;87.75;95072.58;1781210;80;21013;-74
2022/09/30 05:18:35;;;;;;;8.48;7.62;;;;;;;10.75;87.79;95075.47;1757354;80;21425;-68
2022/09/30 05:21:04;;;;;;;9.08;7.72;;;;;;;10.91;88.14;95065.80;1780594;80;21560;-70
2022/09/30 05:23:31;;;;;;;4.05;1.90;;;;;;;10.89;87.08;95068.96;1781419;80;20970;-70
2022/09/30 05:26:00;;;;;;;5.08;2.70;;;;;;;10.86;86.61;95074.30;1781233;80;21061;-66
2022/09/30 05:28:30;;;;;;;5.03;3.40;;;;;;;10.85;87.53;95076.08;1780218;80;21025;-66
2022/09/30 05:31:00;;;;;;;6.08;4.12;;;;;;;10.92;87.60;95072.83;1781381;80;21055;-66
2022/09/30 05:33:32;;;;;;;12.30;9.73;;;;;;;10.95;87.12;95085.94;1780867;80;21472;-67
2022/09/30 05:36:02;;;;;;;13.03;8.95;;;;;;;10.84;87.63;95092.84;1779472;80;21006;-71
2022/09/30 05:38:29;;;;;;;11.28;6.85;;;;;;;10.87;87.95;95086.61;1780664;80;21081;-69
2022/09/30 05:40:56;;;;;;;11.33;6.75;;;;;;;11.00;88.19;95084.02;1780020;80;21049;-69
2022/09/30 05:43:23;;;;;;;11.08;7.10;;;;;;;11.05;87.77;95090.04;1781300;80;21018;-67
2022/09/30 05:45:56;;;;;;;10.15;5.28;;;;;;;11.10;87.90;95093.41;1780796;80;21094;-70
2022/09/30 05:48:24;;;;;;;9.08;5.80;;;;;;;11.16;88.02;95091.94;1783249;80;20990;-66
2022/09/30 05:50:56;;;;;;;7.60;5.65;;;;;;;11.32;88.37;95091.48;1781486;80;21432;-66
2022/09/30 05:53:23;;;;;;;6.00;5.25;;;;;;;11.32;87.30;95097.63;1780698;80;21010;-65
2022/09/30 05:55:51;;;;;;;31.37;17.48;;;;;;;11.32;87.14;95088.38;1780499;80;21029;-69
2022/09/30 05:58:18;;;;;;;17.52;12.23;;;;;;;11.26;86.52;95101.75;1781298;80;21472;-76
2022/09/30 06:00:47;;;;;;;7.05;4.50;;;;;;;11.18;86.80;95107.72;1780335;80;21561;-70
2022/09/30 06:03:15;;;;;;;6.53;5.60;;;;;;;11.13;86.99;95097.74;1780803;80;21021;-78
2022/09/30 06:05:44;;;;;;;4.33;3.62;;;;;;;11.18;87.87;95095.38;1780424;80;20994;-75
2022/09/30 06:08:12;;;;;;;17.12;12.05;;;;;;;11.31;87.80;95109.08;1780156;80;21016;-73
2022/09/30 06:10:42;;;;;;;12.55;7.70;;;;;;;11.35;87.88;95104.59;1781181;80;20966;-69
2022/09/30 06:13:09;;;;;;;7.60;4.45;;;;;;;11.46;87.96;95093.23;1780415;80;20986;-70
2022/09/30 06:15:37;;;;;;;27.48;24.75;;;;;;;11.50;87.21;95090.92;1779943;80;21006;-72
2022/09/30 06:18:05;;;;;;;12.40;6.37;;;;;;;11.50;87.11;95096.67;1780524;80;20974;-73
2022/09/30 06:20:32;;;;;;;6.40;5.20;;;;;;;11.55;87.35;95104.86;1780900;80;21082;-79
2022/09/30 06:23:00;;;;;;;10.48;6.80;;;;;;;11.66;87.89;95106.70;1781000;80;21522;-72
2022/09/30 06:25:29;;;;;;;11.10;8.98;;;;;;;11.79;88.15;95109.86;1781275;80;21005;-70
2022/09/30 06:27:56;;;;;;;55.33;38.15;;;;;;;11.92;87.69;95114.34;1760781;80;21046;-70
2022/09/30 06:30:23;;;;;;;17.52;11.53;;;;;;;12.01;87.91;95124.61;1763538;81;21019;-78
2022/09/30 06:32:50;;;;;;;12.55;10.20;;;;;;;12.04;87.85;95115.71;1762606;81;21027;-74
2022/09/30 06:35:18;;;;;;;14.25;11.93;;;;;;;12.07;88.70;95116.50;1763639;81;20976;-70
2022/09/30 06:37:45;;;;;;;5.60;4.33;;;;;;;12.21;88.90;95113.86;1763693;81;21011;-73
2022/09/30 06:40:12;;;;;;;11.18;6.10;;;;;;;12.38;89.38;95116.81;1761444;81;21671;-71
2022/09/30 06:42:38;;;;;;;6.62;5.97;;;;;;;12.52;88.84;95115.91;1762018;81;21069;-74
2022/09/30 06:45:07;;;;;;;14.58;10.50;;;;;;;12.69;88.40;95116.63;1762268;81;21098;-75
2022/09/30 06:47:33;;;;;;;16.93;8.83;;;;;;;12.84;88.02;95128.47;1762009;81;21572;-70
2022/09/30 06:50:01;;;;;;;7.25;5.42;;;;;;;12.95;87.27;95135.59;1761932;81;21130;-69
2022/09/30 06:52:28;;;;;;;6.85;2.98;;;;;;;13.06;87.01;95129.91;1763134;81;21047;-67
2022/09/30 06:54:55;;;;;;;4.53;3.35;;;;;;;13.12;86.26;95135.44;1762396;81;21498;-74
2022/09/30 06:57:25;;;;;;;2.83;2.00;;;;;;;13.24;86.65;95145.60;1762701;81;21529;-83
2022/09/30 06:59:52;;;;;;;3.80;1.60;;;;;;;13.39;86.62;95140.23;1762127;81;21474;-80
2022/09/30 07:02:19;;;;;;;3.40;2.00;;;;;;;13.49;86.50;95142.95;1762390;81;21074;-77
2022/09/30 07:04:46;;;;;;;3.40;2.87;;;;;;;13.59;86.00;95140.83;1762540;81;21455;-76
2022/09/30 07:07:14;;;;;;;26.52;16.93;;;;;;;13.61;85.05;95145.15;1762772;81;21036;-74
2022/09/30 07:09:42;;;;;;;26.57;16.95;;;;;;;13.67;84.65;95137.89;1762826;81;21139;-71
2022/09/30 07:12:08;;;;;;;11.03;9.88;;;;;;;13.67;84.65;95137.89;1762262;81;21062;-74
2022/09/30 07:14:35;;;;;;;8.13;5.12;;;;;;;13.63;84.08;95142.42;1762750;81;20984;-71
2022/09/30 07:17:04;;;;;;;47.83;43.08;;;;;;;13.56;83.66;95136.97;1762498;81;21000;-73
2022/09/30 07:19:33;;;;;;;2.65;1.60;;;;;;;13.56;83.66;95136.97;1693760;85;21072;-72
2022/09/30 07:22:26;;;;;;;3.08;2.35;;;;;;;13.58;84.24;95157.20;1698285;84;21006;-71
2022/09/30 07:24:28;;;;;;;3.83;3.08;;;;;;;13.58;84.24;95157.20;1720336;83;21099;-73
2022/09/30 07:26:55;;;;;;;3.62;2.80;;;;;;;13.55;83.66;95153.78;1699194;84;21476;-74
2022/09/30 07:29:22;;;;;;;5.75;3.17;;;;;;;13.58;83.89;95161.17;1724912;83;21024;-71
2022/09/30 07:31:48;;;;;;;3.80;1.90;;;;;;;13.63;83.56;95176.45;1698766;84;21469;-74
2022/09/30 07:34:15;;;;;;;2.47;1.60;;;;;;;13.68;84.12;95180.23;1724410;83;21047;-79
2022/09/30 07:36:41;;;;;;;2.65;1.60;;;;;;;13.68;84.12;95180.23;1699057;84;21015;-78
2022/09/30 07:39:10;;;;;;;3.02;1.50;;;;;;;13.80;84.01;95189.52;1725770;83;20993;-74
2022/09/30 07:41:39;;;;;;;2.08;1.40;;;;;;;13.89;84.15;95197.61;1690538;84;21109;-79
2022/09/30 07:44:13;;;;;;;4.80;1.82;;;;;;;13.90;83.72;95192.22;1706298;84;21069;-76
2022/09/30 07:46:41;;;;;;;1.72;1.50;;;;;;;13.96;84.01;95203.95;1706427;84;21077;-79
2022/09/30 07:49:13;;;;;;;2.02;1.50;;;;;;;14.00;83.96;95204.21;1725925;83;21120;-77
2022/09/30 07:51:44;;;;;;;3.42;1.75;;;;;;;14.06;83.92;95202.67;1689461;84;21085;-73
2022/09/30 07:54:15;;;;;;;2.20;1.50;;;;;;;14.04;83.15;95203.65;1696546;84;21010;-79
2022/09/30 07:56:44;;;;;;;2.70;1.70;;;;;;;14.05;83.63;95201.39;1739346;81;21093;-76
2022/09/30 07:59:12;;;;;;;5.33;1.80;;;;;;;14.07;83.62;95207.03;1758418;81;21033;-75
2022/09/30 08:01:39;;;;;;;4.65;1.70;;;;;;;14.06;83.11;95204.43;1758055;81;21066;-80
2022/09/30 08:04:08;;;;;;;2.98;1.90;;;;;;;14.15;83.73;95203.23;1757204;82;20987;-75
2022/09/30 08:06:44;;;;;;;3.65;1.70;;;;;;;14.22;83.80;95200.28;1758272;81;21052;-71
2022/09/30 08:09:12;;;;;;;1.92;1.67;;;;;;;14.32;84.21;95206.56;1758521;81;21028;-74
2022/09/30 08:11:40;;;;;;;2.83;1.60;;;;;;;14.38;83.47;95212.94;1757889;81;21068;-69
2022/09/30 08:14:07;;;;;;;2.17;1.60;;;;;;;14.46;83.23;95208.18;1758566;81;20983;-75
2022/09/30 08:16:33;;;;;;;2.87;1.40;;;;;;;14.52;83.71;95208.42;1758836;81;21002;-76
2022/09/30 08:19:01;;;;;;;3.05;1.65;;;;;;;14.53;82.25;95212.80;1758917;81;21117;-74
2022/09/30 08:21:28;;;;;;;3.55;1.75;;;;;;;14.50;82.60;95212.45;1758576;81;21075;-73
2022/09/30 08:23:56;;;;;;;2.55;1.20;;;;;;;14.58;82.80;95227.64;1757795;81;21058;-74
2022/09/30 08:26:23;;;;;;;2.98;1.25;;;;;;;14.55;81.93;95218.48;1757517;81;21077;-76
2022/09/30 08:28:50;;;;;;;2.65;1.57;;;;;;;14.55;82.56;95218.48;1758288;81;21018;-78
2022/09/30 08:31:21;;;;;;;3.45;1.70;;;;;;;14.65;82.98;95223.81;1758406;81;21066;-68
2022/09/30 08:33:48;;;;;;;4.85;1.82;;;;;;;14.64;82.16;95216.79;1758336;81;21108;-71
2022/09/30 08:36:22;;;;;;;6.70;1.87;;;;;;;14.62;82.13;95219.96;1759197;81;21026;-73
2022/09/30 08:38:49;;;;;;;4.40;1.80;;;;;;;14.66;82.41;95228.66;1757678;81;21088;-71
2022/09/30 08:41:21;;;;;;;3.47;1.82;;;;;;;14.72;82.39;95235.06;1757429;81;21058;-71
2022/09/30 08:44:25;;;;;;;8.08;2.50;;;;;;;14.75;82.20;95237.59;1757746;81;21132;-69
2022/09/30 08:47:00;;;;;;;4.08;2.20;;;;;;;14.79;82.48;95249.83;1755915;82;21093;-71
2022/09/30 08:49:50;;;;;;;4.17;2.60;;;;;;;14.79;81.76;95248.94;1756382;81;21077;-68
2022/09/30 08:52:25;;;;;;;2.02;1.80;;;;;;;14.73;81.68;95259.36;1756820;81;21583;-67
2022/09/30 08:54:54;;;;;;;5.60;1.98;;;;;;;14.78;82.15;95265.81;1756714;81;21076;-73
2022/09/30 08:57:23;;;;;;;2.45;1.52;;;;;;;14.81;82.32;95264.36;1758365;81;21038;-77
2022/09/30 08:59:57;;;;;;;9.55;2.02;;;;;;;14.88;82.29;95276.00;1757871;81;21021;-74
2022/09/30 09:02:54;;;;;;;4.37;1.50;;;;;;;14.97;82.39;95262.82;1758866;81;21030;-75
2022/09/30 09:05:48;;;;;;;5.25;1.52;;;;;;;15.05;82.57;95272.66;1758257;81;21041;-72
2022/09/30 09:08:18;;;;;;;;;;;;;;;15.13;82.49;95257.25;1761101;82;21074;-75
2022/09/30 09:10:50;;;;;;;5.00;1.80;;;;;;;15.21;82.31;95258.27;1758164;81;20097;-73
2022/09/30 09:13:54;;;;;;;1.72;1.62;;;;;;;15.30;82.15;95257.88;1757818;81;21098;-78
2022/09/30 09:16:47;;;;;;;4.80;2.08;;;;;;;15.36;81.65;95265.59;1758434;81;21065;-67
2022/09/30 09:19:17;;;;;;;5.00;2.35;;;;;;;15.39;82.04;95267.72;1717841;81;21100;-68
2022/09/30 09:21:59;;;;;;;4.17;1.95;;;;;;;15.51;82.24;95259.22;1758379;81;21053;-68
2022/09/30 09:24:30;;;;;;;1.57;1.40;;;;;;;15.63;82.47;95240.08;1758437;81;21026;-65
2022/09/30 09:26:58;;;;;;;3.42;1.60;;;;;;;15.83;82.30;95251.67;1756999;81;21080;-67
2022/09/30 09:29:42;;;;;;;2.10;1.67;;;;;;;16.05;82.04;95262.19;1757572;81;21061;-67
2022/09/30 09:32:19;;;;;;;3.30;1.70;;;;;;;16.26;81.96;95263.88;1757088;81;21081;-67
2022/09/30 09:35:02;;;;;;;3.55;1.60;;;;;;;16.52;81.34;95254.67;1758883;81;21017;-68
2022/09/30 09:41:15;;;;;;;6.17;5.45;;;;;;;16.68;80.14;95249.46;1758007;82;21120;-68
2022/09/30 09:44:08;;;;;;;7.90;6.33;;;;;;;16.63;79.00;95259.03;1758782;81;21019;-72
2022/09/30 09:46:54;;;;;;;3.17;2.55;;;;;;;16.47;78.98;95261.16;1758759;81;21065;-65
2022/09/30 09:49:28;;;;;;;5.28;2.47;;;;;;;16.53;80.00;95271.50;1757344;81;21073;-66
2022/09/30 09:52:15;;;;;;;3.87;3.10;;;;;;;16.54;79.79;95268.78;1757607;82;21066;-66
2022/09/30 09:54:46;;;;;;;9.33;2.90;;;;;;;16.40;79.91;95264.56;1757886;81;21566;-68
2022/09/30 09:57:17;;;;;;;2.90;2.70;;;;;;;16.29;81.73;95277.52;1758166;82;21121;-70
2022/09/30 10:03:07;;;;;;;3.90;2.08;;;;;;;16.10;82.14;95268.16;1757796;81;21081;-68
2022/09/30 10:05:38;;;;;;;3.05;1.92;;;;;;;16.06;82.93;95259.47;1729014;81;21019;-67
2022/09/30 10:08:16;;;;;;;5.72;2.40;;;;;;;16.15;83.34;95277.69;1757608;81;21353;-68
2022/09/30 10:10:48;;;;;;;3.83;2.22;;;;;;;16.19;83.39;95279.73;1757929;81;21085;-68
2022/09/30 10:13:21;;;;;;;3.62;1.80;;;;;;;16.26;83.85;95292.31;1757960;81;21132;-69
2022/09/30 10:15:52;;;;;;;2.85;1.80;;;;;;;16.33;83.82;95289.73;1758714;81;21015;-67
2022/09/30 10:18:24;;;;;;;2.15;1.67;;;;;;;16.41;83.49;95291.13;1758601;81;21058;-67
2022/09/30 10:20:58;;;;;;;4.42;1.98;;;;;;;16.53;83.42;95297.70;1759023;81;21045;-67
2022/09/30 10:23:38;;;;;;;3.62;2.27;;;;;;;16.56;83.85;95296.22;1757621;82;21484;-67
2022/09/30 10:26:18;;;;;;;6.00;2.02;;;;;;;16.62;83.89;95289.73;1759001;82;21034;-68
2022/09/30 10:28:52;;;;;;;2.00;1.80;;;;;;;16.72;83.56;95278.17;1758847;81;21058;-68
2022/09/30 10:31:34;;;;;;;5.80;2.25;;;;;;;16.94;84.05;95260.24;1758988;81;21500;-68
2022/09/30 10:34:31;;;;;;;3.58;1.62;;;;;;;17.34;83.39;95253.38;1759058;81;21031;-67
2022/09/30 10:37:01;;;;;;;7.92;1.50;;;;;;;17.64;82.34;95255.84;1758947;81;21042;-67
2022/09/30 10:39:41;;;;;;;4.15;1.87;;;;;;;17.77;81.14;95241.86;1757897;81;21085;-67
2022/09/30 10:42:26;;;;;;;5.53;3.98;;;;;;;17.85;80.66;95242.34;1750946;82;21505;-67
2022/09/30 10:45:05;;;;;;;7.12;3.42;;;;;;;17.80;80.79;95237.73;1750695;82;21133;-67
2022/09/30 10:47:33;;;;;;;6.83;3.60;;;;;;;17.92;79.90;95240.61;1750848;82;21026;-67
2022/09/30 10:50:07;;;;;;;9.18;4.30;;;;;;;17.85;78.95;95241.88;1750887;82;21513;-67
2022/09/30 10:53:03;;;;;;;6.62;4.75;;;;;;;17.82;78.00;95245.19;1751026;82;21010;-66
2022/09/30 10:55:34;;;;;;;6.83;4.37;;;;;;;17.84;78.84;95235.27;1751032;82;21014;-67
2022/09/30 10:58:39;;;;;;;6.50;4.42;;;;;;;18.00;79.45;95235.34;1750485;82;21514;-66
2022/09/30 11:01:25;;;;;;;8.33;2.67;;;;;;;18.23;78.88;95245.63;1750814;82;21027;-67
2022/09/30 11:04:08;;;;;;;2.83;1.52;;;;;;;18.49;77.57;95246.01;1751302;82;21019;-66
2022/09/30 11:06:38;;;;;;;5.08;1.40;;;;;;;19.13;73.58;95262.47;1750799;82;21003;-66
2022/09/30 11:09:23;;;;;;;4.30;1.67;;;;;;;19.45;71.51;95269.08;1750978;82;21022;-67
2022/09/30 11:12:00;;;;;;;4.60;1.25;;;;;;;19.46;70.21;95278.37;1750844;82;21078;-67
2022/09/30 11:14:47;;;;;;;4.40;1.50;;;;;;;19.42;68.97;95283.50;1750919;82;21508;-67
2022/09/30 11:17:43;;;;;;;4.33;1.40;;;;;;;19.37;69.81;95272.20;1751103;82;20995;-67
2022/09/30 11:20:15;;;;;;;4.08;1.47;;;;;;;19.55;71.17;95286.80;1751387;82;21058;-67
2022/09/30 11:23:05;;;;;;;1.92;1.00;;;;;;;20.30;70.61;95274.27;1751219;82;21014;-66
2022/09/30 11:25:43;;;;;;;2.42;0.88;;;;;;;21.12;65.50;95282.92;1751175;82;21189;-66
2022/09/30 11:28:42;;;;;;;3.45;1.30;;;;;;;21.96;64.12;95274.25;1751118;82;21010;-66
2022/09/30 11:31:20;;;;;;;4.00;1.07;;;;;;;22.73;62.74;95272.45;1750862;82;21215;-67
2022/09/30 11:34:01;;;;;;;2.75;1.20;;;;;;;23.27;59.86;95267.22;1751407;82;21058;-67
2022/09/30 11:37:08;;;;;;;5.90;1.02;;;;;;;23.85;58.69;95260.17;1750746;82;21074;-66
2022/09/30 11:40:06;;;;;;;3.95;1.00;;;;;;;24.26;56.90;95252.55;1751152;82;21038;-67
2022/09/30 11:43:04;;;;;;;4.65;1.20;;;;;;;24.81;55.78;95267.09;1752040;82;21551;-68
2022/09/30 11:46:03;;;;;;;1.20;0.88;;;;;;;25.34;53.38;95270.49;1752104;82;21658;-67
2022/09/30 11:49:04;;;;;;;0.50;0.47;;;;;;;25.79;52.08;95273.91;1751985;82;21065;-67
2022/09/30 11:51:44;;;;;;;4.92;1.47;;;;;;;25.96;49.93;95271.17;1752169;82;21077;-67
2022/09/30 11:54:35;;;;;;;4.30;0.90;;;;;;;26.04;46.84;95278.62;1751893;82;21042;-67
2022/09/30 11:57:24;;;;;;;1.75;0.40;;;;;;;26.30;48.72;95263.71;1751646;82;21057;-67
2022/09/30 12:00:14;;;;;;;1.10;0.40;;;;;;;26.76;46.24;95273.28;1751906;82;21058;-67
2022/09/30 12:02:49;;;;;;;1.30;0.50;;;;;;;27.27;44.26;95287.75;1752047;82;21030;-67
2022/09/30 12:05:29;;;;;;;0.40;0.20;;;;;;;27.81;44.44;95284.20;1752780;82;21027;-67
2022/09/30 12:08:23;;;;;;;0.88;0.47;;;;;;;28.13;41.01;95281.77;1752497;82;20983;-67
2022/09/30 12:10:54;;;;;;;0.50;0.20;;;;;;;28.15;36.69;95285.16;1752148;82;21057;-67
2022/09/30 12:13:32;;;;;;;0.33;0.20;;;;;;;28.17;36.35;95277.27;1752080;82;20994;-67
2022/09/30 12:16:03;;;;;;;1.17;0.30;;;;;;;28.27;37.64;95275.87;1751924;82;21027;-67
2022/09/30 12:18:35;;;;;;;0.13;0.13;;;;;;;28.46;37.45;95280.47;1752432;82;21883;-67